Robin B Ingram — WDB9002 — position and weather

sailwx.info

Track history (hours):
 
Tides and Currents Weather Stations Pressure Air Temp Water Temp Dewpoint Dewpoint Depression Visibility Wind Speed Wind Dir Waves Ship Positions

Robin B Ingram

Owner: INGRAM BARGE COMPANY, Nashville, TN. More information available from US FCC via Universal Licensing System and Coast Guard Vessel Documentation Center.

Last reported at 2017-Apr-25 16:45 UTC. Time now 2017-Apr-26 19:20 UTC.
Position N 38°53' W 090°32'.

Length 39 m; draft 3 m.

Type: Towing. MMSI: 366967670.

Date/timePositionNaut miles runAvg speedWind from/ knotsBaromVisibWave heightAir tempDewpointWater temp
2017-Apr-25 16:45N 38°53' W 090°32'1 4.4
2017-Apr-25 16:30N 38°54' W 090°31'2 4.5
2017-Apr-25 16:00N 38°55' W 090°30'2 4.0
2017-Apr-25 15:30N 38°57' W 090°28'1 1.0
2017-Apr-25 15:00N 38°57' W 090°28'3 3.5
2017-Apr-25 14:00N 38°58' W 090°23'2 4.5
2017-Apr-25 13:30N 38°57' W 090°21'2 4.4
2017-Apr-25 13:00N 38°55' W 090°19'2 4.2
2017-Apr-25 12:30N 38°55' W 090°16'2 4.0
2017-Apr-25 11:56N 38°54' W 090°13'4 0.1
2017-Apr-24 11:24N 38°52' W 090°09'2 5.3
2017-Apr-24 11:00N 38°53' W 090°12'3 5.5
2017-Apr-24 10:30N 38°55' W 090°14'0 0.1
2017-Apr-24 09:54N 38°55' W 090°14'0 0.0
2017-Apr-24 09:30N 38°55' W 090°14'0 0.0
2017-Apr-24 09:00N 38°55' W 090°14'0 0.0
2017-Apr-24 08:28N 38°55' W 090°14'0 0.0
2017-Apr-24 07:59N 38°55' W 090°14'0 0.0
2017-Apr-24 07:22N 38°55' W 090°14'0 0.0
2017-Apr-24 06:59N 38°55' W 090°14'0 0.0
2017-Apr-24 06:29N 38°55' W 090°14'0 0.0
2017-Apr-24 06:00N 38°55' W 090°14'0 0.0
2017-Apr-24 05:27N 38°55' W 090°14'0 0.0
2017-Apr-24 04:59N 38°55' W 090°14'0 0.0
2017-Apr-24 04:30N 38°55' W 090°14'0 0.0
2017-Apr-24 04:00N 38°55' W 090°14'0 0.0
2017-Apr-24 03:30N 38°55' W 090°14'2 3.1
2017-Apr-24 03:00N 38°55' W 090°16'4 7.2
2017-Apr-24 02:30N 38°56' W 090°21'4 7.5
2017-Apr-24 02:00N 38°58' W 090°25'3 6.7
2017-Apr-24 01:30N 38°56' W 090°29'4 7.0
2017-Apr-24 00:59N 38°53' W 090°32'  
2017-Apr-17 04:00N 38°52' W 090°33'3 5.2
2017-Apr-17 03:30N 38°55' W 090°31'3 5.2
2017-Apr-17 03:00N 38°57' W 090°29'3 5.2
2017-Apr-17 02:30N 38°58' W 090°26'2 5.0
2017-Apr-17 02:00N 38°57' W 090°23'3 5.2
2017-Apr-17 01:30N 38°56' W 090°20'2 4.9
2017-Apr-17 01:00N 38°55' W 090°17'3 4.6
2017-Apr-17 00:24N 38°54' W 090°13'  
Track history (hours):
 
Tides and Currents Weather Stations Pressure Air Temp Water Temp Dewpoint Dewpoint Depression Visibility Wind Speed Wind Dir Waves Ship Positions

Robin B Ingram

Owner: INGRAM BARGE COMPANY, Nashville, TN. More information available from US FCC via Universal Licensing System and Coast Guard Vessel Documentation Center.

Last reported at 2017-Apr-25 16:45 UTC. Time now 2017-Apr-26 19:20 UTC.
Position N 38°53' W 090°32'.

Length 39 m; draft 3 m.

Type: Towing. MMSI: 366967670.

Date/timePositionNaut miles runAvg speedWind from/ knotsBaromVisibWave heightAir tempDewpointWater temp
2017-Apr-25 16:45N 38°53' W 090°32'1 4.4
2017-Apr-25 16:30N 38°54' W 090°31'2 4.5
2017-Apr-25 16:00N 38°55' W 090°30'2 4.0
2017-Apr-25 15:30N 38°57' W 090°28'1 1.0
2017-Apr-25 15:00N 38°57' W 090°28'3 3.5
2017-Apr-25 14:00N 38°58' W 090°23'2 4.5
2017-Apr-25 13:30N 38°57' W 090°21'2 4.4
2017-Apr-25 13:00N 38°55' W 090°19'2 4.2
2017-Apr-25 12:30N 38°55' W 090°16'2 4.0
2017-Apr-25 11:56N 38°54' W 090°13'4 0.1
2017-Apr-24 11:24N 38°52' W 090°09'2 5.3
2017-Apr-24 11:00N 38°53' W 090°12'3 5.5
2017-Apr-24 10:30N 38°55' W 090°14'0 0.1
2017-Apr-24 09:54N 38°55' W 090°14'0 0.0
2017-Apr-24 09:30N 38°55' W 090°14'0 0.0
2017-Apr-24 09:00N 38°55' W 090°14'0 0.0
2017-Apr-24 08:28N 38°55' W 090°14'0 0.0
2017-Apr-24 07:59N 38°55' W 090°14'0 0.0
2017-Apr-24 07:22N 38°55' W 090°14'0 0.0
2017-Apr-24 06:59N 38°55' W 090°14'0 0.0
2017-Apr-24 06:29N 38°55' W 090°14'0 0.0
2017-Apr-24 06:00N 38°55' W 090°14'0 0.0
2017-Apr-24 05:27N 38°55' W 090°14'0 0.0
2017-Apr-24 04:59N 38°55' W 090°14'0 0.0
2017-Apr-24 04:30N 38°55' W 090°14'0 0.0
2017-Apr-24 04:00N 38°55' W 090°14'0 0.0
2017-Apr-24 03:30N 38°55' W 090°14'2 3.1
2017-Apr-24 03:00N 38°55' W 090°16'4 7.2
2017-Apr-24 02:30N 38°56' W 090°21'4 7.5
2017-Apr-24 02:00N 38°58' W 090°25'3 6.7
2017-Apr-24 01:30N 38°56' W 090°29'4 7.0
2017-Apr-24 00:59N 38°53' W 090°32'  
2017-Apr-17 04:00N 38°52' W 090°33'3 5.2
2017-Apr-17 03:30N 38°55' W 090°31'3 5.2
2017-Apr-17 03:00N 38°57' W 090°29'3 5.2
2017-Apr-17 02:30N 38°58' W 090°26'2 5.0
2017-Apr-17 02:00N 38°57' W 090°23'3 5.2
2017-Apr-17 01:30N 38°56' W 090°20'2 4.9
2017-Apr-17 01:00N 38°55' W 090°17'3 4.6
2017-Apr-17 00:24N 38°54' W 090°13'  

Dump ship's entire track history